Time;durP1;ratioP1;P1;durP2;ratioP2;P2;SDS_P1;SDS_P2;PMS_P1;PMS_P2;Temp;Humidity;BMP_temperature;BMP_pressure;BME280_temperature;BME280_humidity;BME280_pressure;Samples;Min_cycle;Max_cycle;Signal;HPM_P1;HPM_P2
2023/03/09 00:01:26;;;;;;;8.40;7.50;;;2.40;99.90;;;;;;5005249;28;20209;-67
2023/03/09 00:03:54;;;;;;;8.40;7.60;;;2.40;99.90;;;;;;5005014;28;20263;-68
2023/03/09 00:06:21;;;;;;;8.67;7.30;;;2.40;99.90;;;;;;5005263;28;20639;-67
2023/03/09 00:08:48;;;;;;;8.20;6.93;;;2.40;99.90;;;;;;5004610;28;20276;-67
2023/03/09 00:11:16;;;;;;;7.63;6.83;;;2.40;99.90;;;;;;5004932;28;20244;-68
2023/03/09 00:13:43;;;;;;;8.53;7.73;;;2.40;99.90;;;;;;5004036;28;20320;-68
2023/03/09 00:16:15;;;;;;;8.63;7.73;;;2.40;99.90;;;;;;5004440;28;20312;-68
2023/03/09 00:18:42;;;;;;;7.83;7.13;;;2.40;99.90;;;;;;5005099;28;20300;-68
2023/03/09 00:21:14;;;;;;;8.30;7.50;;;2.40;99.90;;;;;;5005129;28;20215;-67
2023/03/09 00:23:42;;;;;;;8.33;7.37;;;2.40;99.90;;;;;;5004497;28;20248;-68
2023/03/09 00:26:09;;;;;;;8.33;6.80;;;2.40;99.90;;;;;;5004341;28;20981;-68
2023/03/09 00:28:37;;;;;;;8.13;7.33;;;2.30;99.90;;;;;;5004109;28;20235;-68
2023/03/09 00:31:06;;;;;;;7.50;6.80;;;2.40;99.90;;;;;;4988052;28;20733;-68
2023/03/09 00:33:35;;;;;;;8.13;7.43;;;2.30;99.90;;;;;;5004199;28;20394;-68
2023/03/09 00:36:02;;;;;;;8.40;7.40;;;2.30;99.90;;;;;;5004251;28;20679;-68
2023/03/09 00:38:29;;;;;;;8.23;7.43;;;2.30;99.90;;;;;;5004254;28;20730;-68
2023/03/09 00:40:55;;;;;;;8.30;7.50;;;2.30;99.90;;;;;;5004685;28;20409;-68
2023/03/09 00:43:22;;;;;;;9.73;7.80;;;2.30;99.90;;;;;;5004412;28;20296;-68
2023/03/09 00:45:49;;;;;;;8.80;7.57;;;2.30;99.90;;;;;;5004588;28;20300;-68
2023/03/09 00:48:17;;;;;;;8.60;7.40;;;2.30;99.90;;;;;;5005187;28;20245;-68
2023/03/09 00:50:45;;;;;;;10.07;7.93;;;2.30;99.90;;;;;;5005031;28;20321;-68
2023/03/09 00:53:12;;;;;;;8.90;8.00;;;2.30;99.90;;;;;;5004330;28;20696;-67
2023/03/09 00:55:39;;;;;;;9.07;8.17;;;2.30;99.90;;;;;;5004063;28;20609;-67
2023/03/09 00:58:05;;;;;;;9.23;8.27;;;2.30;99.90;;;;;;5006708;28;20205;-68
2023/03/09 01:00:33;;;;;;;8.93;7.73;;;2.30;99.90;;;;;;5008411;28;20232;-67
2023/03/09 01:03:00;;;;;;;8.47;7.60;;;2.30;99.90;;;;;;5007871;28;20213;-67
2023/03/09 01:05:27;;;;;;;9.50;8.50;;;2.30;99.90;;;;;;5007941;28;20324;-67
2023/03/09 01:07:56;;;;;;;10.73;8.67;;;2.30;99.90;;;;;;5007761;28;20320;-67
2023/03/09 01:10:23;;;;;;;9.63;8.63;;;2.30;99.90;;;;;;5008306;28;20217;-67
2023/03/09 01:12:50;;;;;;;9.30;8.40;;;2.30;99.90;;;;;;5015942;28;20219;-68
2023/03/09 01:15:17;;;;;;;9.30;8.30;;;2.30;99.90;;;;;;5027491;28;20435;-67
2023/03/09 01:17:44;;;;;;;8.70;7.90;;;2.30;99.90;;;;;;5014093;28;20736;-67
2023/03/09 01:20:11;;;;;;;10.37;8.90;;;2.30;99.90;;;;;;5007974;28;20585;-67
2023/03/09 01:22:38;;;;;;;9.93;8.83;;;2.30;99.90;;;;;;5007230;28;20209;-67
2023/03/09 01:25:08;;;;;;;9.60;8.47;;;2.30;99.90;;;;;;5007641;28;20634;-67
2023/03/09 01:27:34;;;;;;;9.67;8.17;;;2.30;99.90;;;;;;5006980;28;20198;-67
2023/03/09 01:30:02;;;;;;;10.47;9.07;;;2.30;99.90;;;;;;5004591;28;20320;-67
2023/03/09 01:32:29;;;;;;;9.63;8.63;;;2.30;99.90;;;;;;5008334;28;20318;-67
2023/03/09 01:34:56;;;;;;;10.77;9.07;;;2.30;99.90;;;;;;4996702;28;20264;-66
2023/03/09 01:37:23;;;;;;;9.77;8.77;;;2.30;99.90;;;;;;5022696;28;20201;-66
2023/03/09 01:39:49;;;;;;;10.30;8.40;;;2.30;99.90;;;;;;5029061;28;20251;-66
2023/03/09 01:42:18;;;;;;;10.47;8.23;;;2.30;99.90;;;;;;5013348;28;20300;-70
2023/03/09 01:44:44;;;;;;;11.13;9.20;;;2.30;99.90;;;;;;5009335;28;20292;-69
2023/03/09 01:47:11;;;;;;;9.87;8.57;;;2.30;99.90;;;;;;5009509;28;20236;-70
2023/03/09 01:49:44;;;;;;;9.80;8.63;;;2.40;99.90;;;;;;5001604;28;20305;-69
2023/03/09 01:52:16;;;;;;;10.23;9.10;;;2.30;99.90;;;;;;5019462;28;20207;-70
2023/03/09 01:54:48;;;;;;;11.17;9.23;;;2.30;99.90;;;;;;5009535;28;20257;-70
2023/03/09 01:57:23;;;;;;;10.17;9.07;;;2.30;99.90;;;;;;5009575;28;20315;-70
2023/03/09 01:59:53;;;;;;;11.70;10.10;;;2.30;99.90;;;;;;5009237;28;20288;-70
2023/03/09 02:02:23;;;;;;;10.53;9.43;;;2.30;99.90;;;;;;5009044;28;20209;-70
2023/03/09 02:04:54;;;;;;;11.97;9.47;;;2.30;99.90;;;;;;5009265;28;20285;-70
2023/03/09 02:07:24;;;;;;;11.50;10.07;;;2.20;99.90;;;;;;5009168;28;20316;-70
2023/03/09 02:09:55;;;;;;;11.33;9.57;;;2.20;99.90;;;;;;4988682;28;20248;-70
2023/03/09 02:12:24;;;;;;;12.10;9.97;;;2.20;99.90;;;;;;5004622;28;20332;-70
2023/03/09 02:14:51;;;;;;;13.03;10.37;;;2.20;99.90;;;;;;5009045;28;20238;-70
2023/03/09 02:17:19;;;;;;;13.63;10.67;;;2.10;99.90;;;;;;5008632;28;20296;-70
2023/03/09 02:20:05;;;;;;;14.03;10.73;;;2.10;99.90;;;;;;5008908;28;20237;-70
2023/03/09 02:22:33;;;;;;;13.73;10.57;;;2.10;99.90;;;;;;5007864;28;20773;-70
2023/03/09 02:25:11;;;;;;;14.63;11.20;;;2.10;99.90;;;;;;5007628;28;20214;-70
2023/03/09 02:27:39;;;;;;;14.23;11.53;;;2.00;99.90;;;;;;5008365;28;20194;-70
2023/03/09 02:30:08;;;;;;;13.00;10.63;;;2.00;99.90;;;;;;5001464;28;20312;-69
2023/03/09 02:32:35;;;;;;;14.80;11.80;;;2.00;99.90;;;;;;5008190;28;20652;-69
2023/03/09 02:35:03;;;;;;;15.00;11.97;;;2.10;99.90;;;;;;5008581;28;20312;-68
2023/03/09 02:37:33;;;;;;;15.10;11.27;;;2.00;99.90;;;;;;5022718;28;20205;-68
2023/03/09 02:40:04;;;;;;;14.50;11.03;;;2.00;99.90;;;;;;5023681;28;20202;-68
2023/03/09 02:42:31;;;;;;;17.30;11.67;;;2.00;99.90;;;;;;5008459;28;20209;-68
2023/03/09 02:45:02;;;;;;;14.63;11.93;;;2.00;99.90;;;;;;5007833;28;20296;-68
2023/03/09 02:47:29;;;;;;;16.17;11.70;;;2.00;99.90;;;;;;5008211;28;20236;-68
2023/03/09 02:49:56;;;;;;;14.97;11.47;;;2.00;99.90;;;;;;5008099;28;20296;-68
2023/03/09 02:52:23;;;;;;;14.70;11.67;;;2.00;99.90;;;;;;5008303;28;20216;-68
2023/03/09 02:54:50;;;;;;;13.27;10.73;;;2.00;99.90;;;;;;5008162;28;20786;-69
2023/03/09 02:57:17;;;;;;;15.83;11.50;;;2.00;99.90;;;;;;5008476;28;20263;-69
2023/03/09 02:59:44;;;;;;;16.87;11.83;;;2.00;99.90;;;;;;5007423;28;20755;-69
2023/03/09 03:02:12;;;;;;;15.97;12.33;;;2.00;99.90;;;;;;5008137;28;20621;-69
2023/03/09 03:04:39;;;;;;;18.90;12.40;;;2.00;99.90;;;;;;5007689;28;20321;-69
2023/03/09 03:07:11;;;;;;;14.83;11.93;;;2.00;99.90;;;;;;5007664;28;20340;-69
2023/03/09 03:09:38;;;;;;;14.90;11.67;;;2.00;99.90;;;;;;5007590;28;20261;-69
2023/03/09 03:12:06;;;;;;;17.33;12.00;;;2.00;99.90;;;;;;5007813;28;20312;-69
2023/03/09 03:14:33;;;;;;;13.40;11.43;;;2.00;99.90;;;;;;5007334;28;20672;-68
2023/03/09 03:17:00;;;;;;;20.03;12.23;;;2.00;99.90;;;;;;5007277;28;20353;-68
2023/03/09 03:19:28;;;;;;;15.53;12.20;;;1.90;99.90;;;;;;5005038;28;20292;-69
2023/03/09 03:21:55;;;;;;;15.90;12.07;;;1.90;99.90;;;;;;5007347;28;20304;-68
2023/03/09 03:24:21;;;;;;;15.87;12.00;;;1.90;99.90;;;;;;5007445;28;20210;-68
2023/03/09 03:26:48;;;;;;;16.07;12.33;;;1.90;99.90;;;;;;5007327;28;20210;-68
2023/03/09 03:29:15;;;;;;;17.60;12.13;;;1.90;99.90;;;;;;5004812;28;20301;-69
2023/03/09 03:31:42;;;;;;;14.60;11.30;;;1.90;99.90;;;;;;5007583;28;20317;-69
2023/03/09 03:34:09;;;;;;;15.63;12.03;;;1.90;99.90;;;;;;5007039;28;20776;-68
2023/03/09 03:36:37;;;;;;;16.27;11.67;;;1.90;99.90;;;;;;5013820;28;20761;-68
2023/03/09 03:39:05;;;;;;;15.97;12.07;;;1.90;99.90;;;;;;5026922;28;20229;-69
2023/03/09 03:41:32;;;;;;;16.93;12.37;;;1.90;99.90;;;;;;5011612;28;20949;-68
2023/03/09 03:43:59;;;;;;;16.30;12.70;;;1.80;99.90;;;;;;5006753;28;20206;-68
2023/03/09 03:46:30;;;;;;;15.93;11.93;;;1.80;99.90;;;;;;5007176;28;20296;-68
2023/03/09 03:48:57;;;;;;;16.70;11.53;;;1.80;99.90;;;;;;5007263;28;20194;-68
2023/03/09 03:51:24;;;;;;;14.63;11.27;;;1.80;99.90;;;;;;5007128;28;20241;-67
2023/03/09 03:53:52;;;;;;;15.73;11.40;;;1.80;99.90;;;;;;5006995;28;20212;-67
2023/03/09 03:56:19;;;;;;;14.60;10.33;;;1.80;99.90;;;;;;5007213;28;20276;-68
2023/03/09 03:58:46;;;;;;;16.73;11.53;;;1.70;99.90;;;;;;5006996;28;20223;-68
2023/03/09 04:01:13;;;;;;;14.17;10.60;;;1.80;99.90;;;;;;5007041;28;20297;-68
2023/03/09 04:03:40;;;;;;;13.20;10.07;;;1.70;99.90;;;;;;5006792;28;20629;-68
2023/03/09 04:06:07;;;;;;;14.50;10.47;;;1.70;99.90;;;;;;5007158;28;20304;-69
2023/03/09 04:08:34;;;;;;;14.73;10.53;;;1.70;99.90;;;;;;5006677;28;20291;-68
2023/03/09 04:11:07;;;;;;;13.73;10.17;;;1.70;99.90;;;;;;5006786;28;20758;-69
2023/03/09 04:13:34;;;;;;;13.57;9.83;;;1.70;99.90;;;;;;5006535;28;20220;-67
2023/03/09 04:16:00;;;;;;;12.80;10.27;;;1.60;99.90;;;;;;5006460;28;20237;-68
2023/03/09 04:18:27;;;;;;;13.30;10.30;;;1.70;99.90;;;;;;5006914;28;20299;-68
2023/03/09 04:20:54;;;;;;;16.10;10.87;;;1.70;99.90;;;;;;5006418;28;20771;-69
2023/03/09 04:23:21;;;;;;;15.53;10.50;;;1.60;99.90;;;;;;5006498;28;20683;-69
2023/03/09 04:25:55;;;;;;;14.67;10.20;;;1.70;99.90;;;;;;5006472;28;20237;-69
2023/03/09 04:28:24;;;;;;;14.63;10.37;;;1.60;99.90;;;;;;5006623;28;20203;-67
2023/03/09 04:30:51;;;;;;;14.50;10.60;;;1.60;99.90;;;;;;5006972;28;20309;-67
2023/03/09 04:33:18;;;;;;;16.80;11.80;;;1.60;99.90;;;;;;5009436;28;20313;-67
2023/03/09 04:35:45;;;;;;;15.00;10.70;;;1.60;99.90;;;;;;5010042;28;20325;-67
2023/03/09 04:38:13;;;;;;;16.07;11.27;;;1.60;99.90;;;;;;5012848;28;20212;-67
2023/03/09 04:40:40;;;;;;;14.13;10.80;;;1.60;99.90;;;;;;5009748;28;20623;-67
2023/03/09 04:43:07;;;;;;;14.20;10.90;;;1.60;99.90;;;;;;5010450;28;20228;-67
2023/03/09 04:45:36;;;;;;;13.77;10.80;;;1.50;99.90;;;;;;5009843;28;20212;-68
2023/03/09 04:48:03;;;;;;;15.80;11.43;;;1.60;99.90;;;;;;5009845;28;20218;-67
2023/03/09 04:50:30;;;;;;;13.87;11.20;;;1.60;99.90;;;;;;5010447;28;20210;-67
2023/03/09 04:52:57;;;;;;;13.93;11.27;;;1.50;99.90;;;;;;5010129;28;20296;-67
2023/03/09 04:55:24;;;;;;;15.27;11.97;;;1.60;99.90;;;;;;5009779;28;20976;-68
2023/03/09 04:57:51;;;;;;;15.10;11.73;;;1.60;99.90;;;;;;5009794;28;20687;-67
2023/03/09 05:00:19;;;;;;;16.17;12.13;;;1.60;99.90;;;;;;5009911;28;20300;-67
2023/03/09 05:02:47;;;;;;;15.93;10.97;;;1.50;99.90;;;;;;5010183;28;20662;-67
2023/03/09 05:05:16;;;;;;;14.40;10.80;;;1.50;99.90;;;;;;5010318;28;20285;-67
2023/03/09 05:07:43;;;;;;;15.87;11.90;;;1.50;99.90;;;;;;5009760;28;20564;-67
2023/03/09 05:10:11;;;;;;;16.70;12.20;;;1.60;99.90;;;;;;5007663;28;20241;-68
2023/03/09 05:12:38;;;;;;;14.57;11.53;;;1.50;99.90;;;;;;5009925;28;20297;-68
2023/03/09 05:15:06;;;;;;;16.03;12.67;;;1.50;99.90;;;;;;5009551;28;20667;-68
2023/03/09 05:17:33;;;;;;;15.47;11.63;;;1.50;99.90;;;;;;5009851;28;20300;-68
2023/03/09 05:20:06;;;;;;;13.77;10.93;;;1.50;99.90;;;;;;5009781;28;20304;-68
2023/03/09 05:22:33;;;;;;;14.67;12.23;;;1.50;99.90;;;;;;5009822;28;20293;-68
2023/03/09 05:24:59;;;;;;;15.37;11.67;;;1.60;99.90;;;;;;5009265;28;20300;-68
2023/03/09 05:27:26;;;;;;;15.07;12.07;;;1.50;99.90;;;;;;5009485;28;20300;-68
2023/03/09 05:29:53;;;;;;;17.40;12.40;;;1.50;99.90;;;;;;5008959;28;20301;-68
2023/03/09 05:32:20;;;;;;;18.33;12.30;;;1.50;99.90;;;;;;5009677;28;20201;-68
2023/03/09 05:34:47;;;;;;;17.20;12.43;;;1.50;99.90;;;;;;5009261;28;20316;-68
2023/03/09 05:37:16;;;;;;;17.77;13.07;;;1.50;99.90;;;;;;5009369;28;20932;-67
2023/03/09 05:39:42;;;;;;;16.20;12.07;;;1.50;99.90;;;;;;5009432;28;20316;-67
2023/03/09 05:42:09;;;;;;;18.07;13.27;;;1.50;99.90;;;;;;5009149;28;20744;-67
2023/03/09 05:44:36;;;;;;;21.90;13.80;;;1.50;99.90;;;;;;5008691;28;20210;-68
2023/03/09 05:47:04;;;;;;;16.73;12.30;;;1.50;99.90;;;;;;5008841;28;20225;-68
2023/03/09 05:49:30;;;;;;;16.13;12.77;;;1.50;99.90;;;;;;5009013;28;20623;-68
2023/03/09 05:51:57;;;;;;;17.07;12.60;;;1.50;99.90;;;;;;5009243;28;20217;-67
2023/03/09 05:54:26;;;;;;;17.57;12.93;;;1.50;99.90;;;;;;5008864;28;20206;-67
2023/03/09 05:56:54;;;;;;;18.13;12.67;;;1.50;99.90;;;;;;5008753;28;20666;-67
2023/03/09 05:59:22;;;;;;;16.27;12.40;;;1.50;99.90;;;;;;5008696;28;20697;-67
2023/03/09 06:01:48;;;;;;;16.30;12.47;;;1.50;99.90;;;;;;5009224;28;20245;-67
2023/03/09 06:04:16;;;;;;;14.93;12.20;;;1.50;99.90;;;;;;5009072;28;20300;-68
2023/03/09 06:06:42;;;;;;;15.70;12.33;;;1.50;99.90;;;;;;5008170;28;20311;-67
2023/03/09 06:09:09;;;;;;;15.87;12.23;;;1.60;99.90;;;;;;5008665;28;20241;-68
2023/03/09 06:11:37;;;;;;;16.10;12.27;;;1.60;99.90;;;;;;5008691;28;20300;-67
2023/03/09 06:14:04;;;;;;;15.23;12.23;;;1.50;99.90;;;;;;5008237;28;20305;-70
2023/03/09 06:16:31;;;;;;;17.00;12.57;;;1.60;99.90;;;;;;5008772;28;20240;-69
2023/03/09 06:18:58;;;;;;;16.53;12.13;;;1.60;99.90;;;;;;5008571;28;20304;-68
2023/03/09 06:21:25;;;;;;;15.27;12.00;;;1.60;99.90;;;;;;5008772;28;20255;-69
2023/03/09 06:23:54;;;;;;;16.93;12.20;;;1.60;99.90;;;;;;5008125;28;20219;-68
2023/03/09 06:26:21;;;;;;;17.93;12.83;;;1.70;99.90;;;;;;5008739;28;20217;-68
2023/03/09 06:28:49;;;;;;;15.27;12.17;;;1.70;99.90;;;;;;5007846;28;21054;-67
2023/03/09 06:31:17;;;;;;;14.27;11.60;;;1.70;99.90;;;;;;5008271;28;20296;-68
2023/03/09 06:33:45;;;;;;;14.87;12.47;;;1.70;99.90;;;;;;5008445;28;20806;-68
2023/03/09 06:36:13;;;;;;;15.83;12.30;;;1.80;99.90;;;;;;5008983;28;20469;-68
2023/03/09 06:38:40;;;;;;;14.97;11.77;;;1.80;99.90;;;;;;5008028;28;20292;-68
2023/03/09 06:41:08;;;;;;;14.40;11.30;;;1.80;99.90;;;;;;5007873;28;20216;-68
2023/03/09 06:43:35;;;;;;;15.03;11.70;;;1.90;99.90;;;;;;5008214;28;20299;-68
2023/03/09 06:46:04;;;;;;;15.03;12.13;;;1.90;99.90;;;;;;5008328;28;20591;-68
2023/03/09 06:48:31;;;;;;;15.47;12.17;;;1.90;99.90;;;;;;5008077;28;20212;-68
2023/03/09 06:50:58;;;;;;;13.83;11.40;;;1.80;99.90;;;;;;5008063;28;20607;-69
2023/03/09 06:53:25;;;;;;;12.47;10.77;;;1.80;99.90;;;;;;5007662;28;20739;-69
2023/03/09 06:55:51;;;;;;;12.27;10.73;;;1.80;99.90;;;;;;5004983;28;20349;-68
2023/03/09 06:58:18;;;;;;;13.23;11.13;;;1.80;99.90;;;;;;5005956;28;20214;-68
2023/03/09 07:00:46;;;;;;;14.03;10.93;;;1.70;99.90;;;;;;5006011;28;20316;-68
2023/03/09 07:03:18;;;;;;;12.63;11.00;;;1.80;99.90;;;;;;5005852;28;20255;-68
2023/03/09 07:05:45;;;;;;;13.77;10.93;;;1.80;99.90;;;;;;5005500;28;20280;-69
2023/03/09 07:08:13;;;;;;;12.77;10.73;;;1.80;99.90;;;;;;5005863;28;20221;-68
2023/03/09 07:10:39;;;;;;;14.27;11.10;;;1.80;99.90;;;;;;4999007;28;20268;-68
2023/03/09 07:13:11;;;;;;;13.27;10.63;;;1.80;99.90;;;;;;4993550;28;20906;-68
2023/03/09 07:15:38;;;;;;;14.47;10.70;;;1.80;99.90;;;;;;5005992;28;20311;-68
2023/03/09 07:18:05;;;;;;;14.00;11.10;;;1.70;99.90;;;;;;5005923;28;20209;-69
2023/03/09 07:20:34;;;;;;;13.07;10.53;;;1.70;99.90;;;;;;5005752;28;20210;-68
2023/03/09 07:23:01;;;;;;;11.53;10.10;;;1.80;99.90;;;;;;5005862;28;20232;-68
2023/03/09 07:25:28;;;;;;;12.90;10.20;;;1.80;99.90;;;;;;5003058;28;20237;-67
2023/03/09 07:27:55;;;;;;;12.57;10.07;;;1.80;99.90;;;;;;5004890;28;20212;-68
2023/03/09 07:30:22;;;;;;;11.27;10.17;;;1.70;99.90;;;;;;5007247;28;20206;-68
2023/03/09 07:32:49;;;;;;;13.03;10.27;;;1.80;99.90;;;;;;5006859;28;20285;-67
2023/03/09 07:35:16;;;;;;;12.60;10.27;;;1.80;99.90;;;;;;5009593;28;20354;-67
2023/03/09 07:37:44;;;;;;;11.60;10.40;;;1.80;99.90;;;;;;5006845;28;20213;-68
2023/03/09 07:40:12;;;;;;;12.23;10.17;;;1.80;99.90;;;;;;5005862;28;20236;-67
2023/03/09 07:42:39;;;;;;;11.73;10.17;;;1.90;99.90;;;;;;5006855;28;20217;-68
2023/03/09 07:45:08;;;;;;;12.33;10.03;;;1.90;99.90;;;;;;5006238;28;20793;-69
2023/03/09 07:47:34;;;;;;;13.17;9.70;;;1.90;99.90;;;;;;5009820;28;20229;-68
2023/03/09 07:50:02;;;;;;;11.33;10.17;;;1.90;99.90;;;;;;5009186;28;20266;-69
2023/03/09 07:52:31;;;;;;;11.00;9.90;;;1.90;99.90;;;;;;5014543;28;20209;-69
2023/03/09 07:55:00;;;;;;;10.30;9.20;;;1.90;99.90;;;;;;5015060;28;20201;-68
2023/03/09 07:57:31;;;;;;;11.63;9.83;;;1.90;99.90;;;;;;5016332;28;20209;-69
2023/03/09 07:59:59;;;;;;;12.67;9.60;;;1.90;99.90;;;;;;5005860;28;20998;-68
2023/03/09 08:02:26;;;;;;;12.37;9.70;;;1.90;99.90;;;;;;5005712;28;20675;-68
2023/03/09 08:04:53;;;;;;;10.97;8.83;;;1.90;99.90;;;;;;5005224;28;20716;-68
2023/03/09 08:07:20;;;;;;;10.13;8.53;;;1.90;99.90;;;;;;5004864;28;20215;-68
2023/03/09 08:09:47;;;;;;;11.30;9.50;;;1.80;99.90;;;;;;4998460;28;20499;-68
2023/03/09 08:12:15;;;;;;;10.47;9.13;;;1.90;99.90;;;;;;5007225;28;20289;-68
2023/03/09 08:14:42;;;;;;;11.60;9.33;;;1.90;99.90;;;;;;5008063;28;20836;-68
2023/03/09 08:17:09;;;;;;;12.83;8.60;;;1.90;99.90;;;;;;5006518;28;20237;-68
2023/03/09 08:19:36;;;;;;;10.27;8.83;;;2.00;99.90;;;;;;5001087;28;20251;-68
2023/03/09 08:22:02;;;;;;;10.50;8.90;;;1.90;99.90;;;;;;5004996;28;20582;-68
2023/03/09 08:24:30;;;;;;;10.77;8.87;;;2.00;99.90;;;;;;5005078;28;20318;-68
2023/03/09 08:26:57;;;;;;;10.07;8.97;;;2.00;99.90;;;;;;5004878;28;20221;-68
2023/03/09 08:29:25;;;;;;;12.80;9.10;;;2.10;99.90;;;;;;5004726;28;20851;-68
2023/03/09 08:31:52;;;;;;;10.10;8.67;;;2.10;99.90;;;;;;5004648;28;20256;-68
2023/03/09 08:34:19;;;;;;;10.60;9.00;;;2.10;99.90;;;;;;5005166;28;20205;-68
2023/03/09 08:36:46;;;;;;;10.57;9.47;;;2.20;99.90;;;;;;5004546;28;20588;-68
2023/03/09 08:39:13;;;;;;;12.07;10.00;;;2.20;99.90;;;;;;5004810;28;20217;-68
2023/03/09 08:41:40;;;;;;;10.53;9.17;;;2.30;99.90;;;;;;4996430;28;20694;-68
2023/03/09 08:44:07;;;;;;;10.90;9.23;;;2.30;99.90;;;;;;5004432;28;20830;-69
2023/03/09 08:46:35;;;;;;;10.10;9.10;;;2.30;99.90;;;;;;5002826;28;20230;-69
2023/03/09 08:49:02;;;;;;;11.03;9.03;;;2.30;99.90;;;;;;5006054;28;20293;-69
2023/03/09 08:51:29;;;;;;;11.53;9.50;;;2.30;99.90;;;;;;5005999;28;20639;-68
2023/03/09 08:53:56;;;;;;;14.93;10.07;;;2.30;99.90;;;;;;5006091;28;20209;-69
2023/03/09 08:56:23;;;;;;;9.87;8.97;;;2.20;99.90;;;;;;5002261;28;20225;-69
2023/03/09 08:58:50;;;;;;;10.57;9.57;;;2.20;99.90;;;;;;4990315;28;20231;-69
2023/03/09 09:01:17;;;;;;;9.67;8.87;;;2.20;99.90;;;;;;5002173;28;20317;-69
2023/03/09 09:03:45;;;;;;;10.37;9.37;;;2.20;99.90;;;;;;5006331;28;20205;-81
2023/03/09 09:06:14;;;;;;;12.57;10.67;;;2.20;99.90;;;;;;5006214;28;20221;-72
2023/03/09 09:08:42;;;;;;;11.93;9.03;;;2.20;99.90;;;;;;5005980;28;20661;-84
2023/03/09 09:11:12;;;;;;;11.73;10.00;;;2.20;99.90;;;;;;5006202;28;20661;-69
2023/03/09 09:13:39;;;;;;;11.87;10.23;;;2.20;99.90;;;;;;5005556;28;20214;-69
2023/03/09 09:16:08;;;;;;;11.20;9.53;;;2.20;99.90;;;;;;5006003;28;20320;-68
2023/03/09 09:18:36;;;;;;;12.00;10.03;;;2.20;99.90;;;;;;5007074;28;20284;-68
2023/03/09 09:21:07;;;;;;;11.93;10.23;;;2.20;99.90;;;;;;5009712;28;20249;-69
2023/03/09 09:23:34;;;;;;;11.67;10.40;;;2.20;99.90;;;;;;5009731;28;20280;-68
2023/03/09 09:26:02;;;;;;;14.27;10.67;;;2.20;99.90;;;;;;5009330;28;20233;-69
2023/03/09 09:28:29;;;;;;;10.73;9.63;;;2.20;99.90;;;;;;5009158;28;20201;-68
2023/03/09 09:30:58;;;;;;;11.83;10.50;;;2.30;99.90;;;;;;5009399;28;20201;-69
2023/03/09 09:33:25;;;;;;;11.27;10.17;;;2.20;99.90;;;;;;5008920;28;20201;-69
2023/03/09 09:35:57;;;;;;;12.67;10.53;;;2.30;99.90;;;;;;5009059;28;20316;-69
2023/03/09 09:38:27;;;;;;;12.47;10.87;;;2.30;99.90;;;;;;5009753;28;20288;-69
2023/03/09 09:40:55;;;;;;;12.27;11.07;;;2.30;99.90;;;;;;5008677;28;20233;-69
2023/03/09 09:43:23;;;;;;;12.33;11.03;;;2.30;99.90;;;;;;5008836;28;20288;-69
2023/03/09 09:45:51;;;;;;;12.80;10.47;;;2.30;99.90;;;;;;5008860;28;20284;-69
2023/03/09 09:48:20;;;;;;;13.13;11.73;;;2.40;99.90;;;;;;5009175;28;20770;-69
2023/03/09 09:51:02;;;;;;;15.23;12.60;;;2.40;99.90;;;;;;5008735;28;20241;-69
2023/03/09 09:53:37;;;;;;;15.90;11.20;;;2.40;99.90;;;;;;5008558;28;21552;-69
2023/03/09 09:56:10;;;;;;;13.27;11.87;;;2.40;99.90;;;;;;5009261;28;20787;-69
2023/03/09 09:58:45;;;;;;;14.80;12.13;;;2.40;99.90;;;;;;5008783;28;20213;-69
2023/03/09 10:01:20;;;;;;;14.17;12.70;;;2.40;99.90;;;;;;5008588;28;20286;-69
2023/03/09 10:03:50;;;;;;;14.10;12.30;;;2.40;99.90;;;;;;5009158;28;20291;-69
2023/03/09 10:06:20;;;;;;;16.50;13.20;;;2.40;99.90;;;;;;5009303;28;20312;-69
2023/03/09 10:08:55;;;;;;;13.20;11.83;;;2.40;99.90;;;;;;5008755;28;20251;-69
2023/03/09 10:11:26;;;;;;;15.17;12.27;;;2.50;99.90;;;;;;5002251;28;20300;-69
2023/03/09 10:13:59;;;;;;;15.50;12.90;;;2.50;99.90;;;;;;5001541;28;20204;-69
2023/03/09 10:16:28;;;;;;;15.77;13.80;;;2.50;99.90;;;;;;5008496;28;20692;-69
2023/03/09 10:18:59;;;;;;;15.43;12.53;;;2.50;99.90;;;;;;5009054;28;20296;-69
2023/03/09 10:21:33;;;;;;;14.20;12.67;;;2.50;99.90;;;;;;5008633;28;20289;-69
2023/03/09 10:24:12;;;;;;;14.53;12.87;;;2.50;99.90;;;;;;5008316;28;20197;-69
2023/03/09 10:26:44;;;;;;;14.20;12.57;;;2.60;99.90;;;;;;5008407;28;20201;-69
2023/03/09 10:29:26;;;;;;;16.63;12.73;;;2.60;99.90;;;;;;5008036;28;20377;-69
2023/03/09 10:31:58;;;;;;;14.73;12.47;;;2.60;99.90;;;;;;5008270;28;20217;-69
2023/03/09 10:34:27;;;;;;;15.10;12.97;;;2.60;99.90;;;;;;5007801;28;20664;-69
2023/03/09 10:37:08;;;;;;;16.73;13.57;;;2.60;99.90;;;;;;5017546;28;20232;-69
2023/03/09 10:39:43;;;;;;;14.63;12.50;;;2.60;99.90;;;;;;5020753;28;20189;-69
2023/03/09 10:42:18;;;;;;;14.63;12.87;;;2.60;99.90;;;;;;4995149;28;20240;-69
2023/03/09 10:44:59;;;;;;;14.47;12.10;;;2.60;99.90;;;;;;4988606;28;20652;-69
2023/03/09 10:47:26;;;;;;;14.20;11.87;;;2.60;99.90;;;;;;5004723;28;20327;-69
2023/03/09 10:50:12;;;;;;;14.00;12.60;;;2.50;99.90;;;;;;5007652;28;20297;-69
2023/03/09 10:52:39;;;;;;;14.33;12.07;;;2.60;99.90;;;;;;5007982;28;20288;-69
2023/03/09 10:55:44;;;;;;;14.33;12.83;;;2.50;99.90;;;;;;5007661;28;20225;-69
2023/03/09 10:58:17;;;;;;;13.63;12.20;;;2.60;99.90;;;;;;4992414;28;20237;-69
2023/03/09 11:00:56;;;;;;;13.70;12.23;;;2.60;99.90;;;;;;5007675;28;20285;-69
2023/03/09 11:03:25;;;;;;;14.37;12.80;;;2.60;99.90;;;;;;5006102;28;20198;-69
2023/03/09 11:05:52;;;;;;;19.13;13.73;;;2.60;99.90;;;;;;5004554;28;20739;-69
2023/03/09 11:08:25;;;;;;;14.83;13.13;;;2.60;99.90;;;;;;5004587;28;20239;-69
2023/03/09 11:11:02;;;;;;;15.30;13.17;;;2.60;99.90;;;;;;5005785;28;20214;-69
2023/03/09 11:13:30;;;;;;;16.30;13.70;;;2.60;99.90;;;;;;5007608;28;20251;-69
2023/03/09 11:16:15;;;;;;;16.27;13.00;;;2.60;99.90;;;;;;5006307;28;20293;-69
2023/03/09 11:18:42;;;;;;;15.43;13.30;;;2.60;99.90;;;;;;5005563;28;20233;-69
2023/03/09 11:21:09;;;;;;;14.87;12.97;;;2.60;99.90;;;;;;5006615;28;20834;-69
2023/03/09 11:23:42;;;;;;;15.30;13.53;;;2.60;99.90;;;;;;5007237;28;20212;-68
2023/03/09 11:26:14;;;;;;;18.63;13.83;;;2.60;99.90;;;;;;5007975;28;20210;-69
2023/03/09 11:28:55;;;;;;;16.80;13.53;;;2.60;99.90;;;;;;5002663;28;20690;-69
2023/03/09 11:31:24;;;;;;;15.90;13.17;;;2.60;99.90;;;;;;5008134;28;20241;-69
2023/03/09 11:33:55;;;;;;;14.87;12.97;;;2.60;99.90;;;;;;5008583;28;20678;-69
2023/03/09 11:36:27;;;;;;;16.40;13.70;;;2.60;99.90;;;;;;5009883;28;20254;-69
2023/03/09 11:38:55;;;;;;;15.43;13.73;;;2.60;99.90;;;;;;5006068;28;20660;-69
2023/03/09 11:41:26;;;;;;;16.10;13.93;;;2.60;99.90;;;;;;5002815;28;20288;-69
2023/03/09 11:44:00;;;;;;;16.43;13.83;;;2.60;99.90;;;;;;5007498;28;20202;-69
2023/03/09 11:46:27;;;;;;;16.30;13.90;;;2.60;99.90;;;;;;5000912;28;20244;-69
2023/03/09 11:49:04;;;;;;;15.57;13.57;;;2.70;99.90;;;;;;5006002;28;20857;-69
2023/03/09 11:51:37;;;;;;;14.70;13.20;;;2.70;99.90;;;;;;5005689;28;20290;-69
2023/03/09 11:54:16;;;;;;;15.60;13.67;;;2.70;99.90;;;;;;5003564;28;20288;-69
2023/03/09 11:56:46;;;;;;;15.80;13.60;;;2.60;99.90;;;;;;5004552;28;20221;-69
2023/03/09 11:59:19;;;;;;;15.80;13.00;;;2.60;99.90;;;;;;5005138;28;20827;-69
2023/03/09 12:01:50;;;;;;;14.77;13.20;;;2.60;99.90;;;;;;4999670;28;20214;-69
2023/03/09 12:04:18;;;;;;;16.17;13.23;;;2.60;99.90;;;;;;5005368;28;20288;-69
2023/03/09 12:06:54;;;;;;;16.07;13.97;;;2.60;99.90;;;;;;5004895;28;20205;-69
2023/03/09 12:09:32;;;;;;;14.97;13.30;;;2.60;99.90;;;;;;5003355;28;20259;-69
2023/03/09 12:12:03;;;;;;;16.47;13.93;;;2.70;99.90;;;;;;5005353;28;20208;-69
2023/03/09 12:14:37;;;;;;;18.87;14.00;;;2.70;99.90;;;;;;5005566;28;20206;-69
2023/03/09 12:17:13;;;;;;;16.43;13.73;;;2.70;99.90;;;;;;5003580;28;20236;-70
2023/03/09 12:19:47;;;;;;;20.00;13.53;;;2.70;99.90;;;;;;5005198;28;20300;-69
2023/03/09 12:22:17;;;;;;;15.17;13.13;;;2.70;99.90;;;;;;5005782;28;20240;-69
2023/03/09 12:24:46;;;;;;;15.07;13.17;;;2.70;99.90;;;;;;5003222;28;20205;-69
2023/03/09 12:27:19;;;;;;;15.27;13.67;;;2.70;99.90;;;;;;5005287;28;20731;-69
2023/03/09 12:29:51;;;;;;;17.00;14.63;;;2.80;99.90;;;;;;5005235;28;20206;-69
2023/03/09 12:32:37;;;;;;;17.47;14.07;;;2.70;99.90;;;;;;5005791;28;20236;-69
2023/03/09 12:35:10;;;;;;;16.20;13.97;;;2.80;99.90;;;;;;5003202;28;20284;-69
2023/03/09 12:38:05;;;;;;;16.30;13.90;;;2.70;99.90;;;;;;5006588;28;20614;-69
2023/03/09 12:40:35;;;;;;;16.67;13.27;;;2.70;99.90;;;;;;5002940;28;20286;-68
2023/03/09 12:43:54;;;;;;;14.90;13.17;;;2.80;99.90;;;;;;5004244;28;20256;-69
2023/03/09 12:47:02;;;;;;;15.80;13.30;;;2.80;99.90;;;;;;5004011;28;20299;-69
2023/03/09 12:49:35;;;;;;;16.77;13.83;;;2.80;99.90;;;;;;5003563;28;20201;-68
2023/03/09 12:52:26;;;;;;;17.23;14.00;;;2.80;99.90;;;;;;5004459;28;20201;-69